Time;durP1;ratioP1;P1;durP2;ratioP2;P2;SDS_P1;SDS_P2;PMS_P1;PMS_P2;Temp;Humidity;BMP_temperature;BMP_pressure;BME280_temperature;BME280_humidity;BME280_pressure;Samples;Min_cycle;Max_cycle;Signal;HPM_P1;HPM_P2
2023/06/08 00:01:52;;;;;;;36.30;16.97;;;15.80;90.80;;;;;;5061042;28;20509;-59
2023/06/08 00:04:19;;;;;;;53.63;22.70;;;15.90;90.90;;;;;;5069520;28;20481;-60
2023/06/08 00:06:49;;;;;;;32.07;16.47;;;15.90;90.50;;;;;;5070928;28;20745;-60
2023/06/08 00:09:16;;;;;;;46.97;18.73;;;15.90;90.50;;;;;;5056733;28;20481;-60
2023/06/08 00:11:43;;;;;;;39.20;17.97;;;15.90;90.40;;;;;;5065109;28;20481;-59
2023/06/08 00:14:11;;;;;;;16.43;12.77;;;15.80;90.30;;;;;;5073911;28;20480;-60
2023/06/08 00:16:39;;;;;;;21.03;14.20;;;15.70;90.50;;;;;;5068626;28;20470;-60
2023/06/08 00:19:07;;;;;;;21.17;13.50;;;15.70;90.70;;;;;;5067660;28;20509;-60
2023/06/08 00:21:34;;;;;;;36.13;18.20;;;15.60;90.30;;;;;;5070252;28;21221;-60
2023/06/08 00:24:01;;;;;;;44.93;17.50;;;15.50;90.90;;;;;;5071359;28;20498;-60
2023/06/08 00:26:27;;;;;;;46.43;19.40;;;15.40;91.10;;;;;;5072104;28;20478;-60
2023/06/08 00:28:54;;;;;;;32.37;16.00;;;15.30;91.20;;;;;;5069371;28;20474;-59
2023/06/08 00:31:22;;;;;;;44.63;19.20;;;15.20;91.10;;;;;;5066129;28;20793;-59
2023/06/08 00:33:49;;;;;;;35.00;17.23;;;15.20;91.20;;;;;;5071677;28;20486;-60
2023/06/08 00:36:16;;;;;;;26.83;14.20;;;15.10;91.60;;;;;;5071165;28;20475;-60
2023/06/08 00:38:43;;;;;;;50.73;16.97;;;15.00;91.70;;;;;;5069233;28;20475;-59
2023/06/08 00:41:09;;;;;;;28.13;17.50;;;15.10;91.30;;;;;;5068610;28;20869;-60
2023/06/08 00:43:36;;;;;;;32.80;16.13;;;15.10;91.20;;;;;;5065087;28;20475;-60
2023/06/08 00:46:04;;;;;;;23.00;14.27;;;15.20;91.10;;;;;;5070448;28;20508;-60
2023/06/08 00:48:32;;;;;;;41.53;18.93;;;15.20;91.00;;;;;;5067789;28;21667;-60
2023/06/08 00:51:00;;;;;;;35.10;17.13;;;15.20;91.40;;;;;;5066312;28;20478;-59
2023/06/08 00:53:28;;;;;;;43.30;20.27;;;15.10;91.20;;;;;;5067116;28;20789;-59
2023/06/08 00:55:57;;;;;;;28.97;16.60;;;15.10;91.40;;;;;;5068770;28;20555;-59
2023/06/08 00:58:24;;;;;;;50.50;22.13;;;15.00;91.60;;;;;;5066703;28;20482;-59
2023/06/08 01:00:50;;;;;;;33.83;16.20;;;14.90;91.50;;;;;;5073039;28;20475;-60
2023/06/08 01:03:19;;;;;;;37.57;18.17;;;14.90;91.30;;;;;;5071496;28;20480;-59
2023/06/08 01:05:52;;;;;;;35.70;16.33;;;14.90;91.50;;;;;;5070513;28;21172;-59
2023/06/08 01:08:31;;;;;;;56.33;20.67;;;14.90;91.60;;;;;;5070288;28;20498;-59
2023/06/08 01:11:06;;;;;;;31.83;16.53;;;14.90;91.60;;;;;;5063398;28;20482;-59
2023/06/08 01:13:43;;;;;;;29.57;15.57;;;14.90;91.20;;;;;;5080239;28;21117;-59
2023/06/08 01:16:14;;;;;;;25.30;15.00;;;14.90;91.10;;;;;;5067488;28;20974;-59
2023/06/08 01:18:43;;;;;;;31.73;15.67;;;15.00;91.50;;;;;;5068278;28;20482;-60
2023/06/08 01:21:35;;;;;;;29.33;15.93;;;15.00;91.40;;;;;;5067568;28;20508;-59
2023/06/08 01:24:12;;;;;;;26.03;13.53;;;14.90;91.10;;;;;;5062706;28;20451;-60
2023/06/08 01:26:41;;;;;;;32.57;16.90;;;14.90;90.80;;;;;;5053775;28;20475;-59
2023/06/08 01:29:09;;;;;;;16.30;12.23;;;14.90;91.00;;;;;;5026723;28;21172;-60
2023/06/08 01:31:36;;;;;;;22.90;12.97;;;14.80;91.00;;;;;;5055750;28;20574;-59
2023/06/08 01:34:04;;;;;;;24.77;14.27;;;14.60;91.10;;;;;;5056287;28;20482;-60
2023/06/08 01:36:40;;;;;;;53.33;17.60;;;14.20;91.50;;;;;;5051528;28;20482;-59
2023/06/08 01:39:13;;;;;;;26.53;14.53;;;14.10;91.80;;;;;;5054646;28;21075;-60
2023/06/08 01:41:44;;;;;;;39.72;16.40;;;14.00;92.20;;;;;;5017783;28;1137681;-60
2023/06/08 01:44:15;;;;;;;27.73;15.23;;;14.00;92.20;;;;;;5044260;28;20670;-59
2023/06/08 01:46:49;;;;;;;34.50;17.10;;;14.00;93.00;;;;;;5045394;28;20463;-59
2023/06/08 01:49:16;;;;;;;30.83;15.70;;;14.10;92.40;;;;;;5044446;28;21209;-59
2023/06/08 01:51:43;;;;;;;33.53;15.63;;;14.20;92.40;;;;;;5056162;28;20484;-59
2023/06/08 01:54:12;;;;;;;28.40;15.93;;;14.30;92.00;;;;;;5045187;28;20467;-59
2023/06/08 01:56:39;;;;;;;30.13;15.60;;;14.30;92.10;;;;;;5059600;28;20471;-60
2023/06/08 01:59:06;;;;;;;25.03;13.90;;;14.30;91.90;;;;;;5059805;28;20483;-59
2023/06/08 02:01:33;;;;;;;40.30;16.07;;;;;;;;;;5048481;28;21007;-60
2023/06/08 02:04:00;;;;;;;37.00;17.80;;;14.30;91.90;;;;;;5058490;28;20475;-60
2023/06/08 02:06:27;;;;;;;55.00;21.20;;;14.30;91.70;;;;;;5056528;28;20471;-60
2023/06/08 02:08:54;;;;;;;33.90;16.90;;;14.30;92.00;;;;;;5056694;28;20491;-60
2023/06/08 02:11:22;;;;;;;56.73;20.90;;;14.30;91.90;;;;;;5032806;28;20479;-59
2023/06/08 02:13:50;;;;;;;37.00;17.43;;;14.30;91.70;;;;;;5060655;28;20532;-60
2023/06/08 02:16:18;;;;;;;42.17;18.30;;;14.30;91.70;;;;;;5043781;28;20877;-59
2023/06/08 02:18:46;;;;;;;42.33;15.73;;;14.20;91.50;;;;;;5043510;28;20474;-59
2023/06/08 02:21:13;;;;;;;24.47;13.70;;;14.20;91.40;;;;;;5056466;28;20471;-59
2023/06/08 02:23:40;;;;;;;32.47;16.40;;;14.10;91.40;;;;;;5054637;28;20483;-60
2023/06/08 02:26:08;;;;;;;20.10;13.53;;;14.00;91.50;;;;;;5059259;28;20487;-59
2023/06/08 02:28:36;;;;;;;29.30;16.20;;;14.00;91.20;;;;;;5059109;28;20971;-59
2023/06/08 02:31:04;;;;;;;27.17;16.07;;;14.00;91.00;;;;;;5055633;28;20490;-60
2023/06/08 02:33:31;;;;;;;45.37;19.00;;;14.00;91.20;;;;;;5052888;28;20492;-59
2023/06/08 02:35:58;;;;;;;29.73;15.70;;;14.10;91.40;;;;;;5058092;28;21141;-59
2023/06/08 02:38:26;;;;;;;59.53;20.73;;;14.10;91.30;;;;;;5057301;28;20483;-59
2023/06/08 02:40:53;;;;;;;39.17;17.57;;;14.10;91.40;;;;;;5055226;28;20556;-59
2023/06/08 02:43:20;;;;;;;53.50;20.23;;;14.00;91.20;;;;;;5050207;28;20491;-61
2023/06/08 02:45:48;;;;;;;36.90;14.93;;;13.90;91.20;;;;;;5047630;28;20490;-60
2023/06/08 02:48:15;;;;;;;33.37;16.87;;;13.80;91.30;;;;;;5054872;28;20956;-60
2023/06/08 02:50:42;;;;;;;41.23;17.43;;;13.70;91.50;;;;;;5045900;28;20487;-59
2023/06/08 02:53:09;;;;;;;22.90;14.57;;;13.70;91.40;;;;;;5053375;28;20940;-59
2023/06/08 02:55:36;;;;;;;30.83;15.97;;;13.60;91.30;;;;;;5055341;28;20483;-60
2023/06/08 02:58:04;;;;;;;26.17;15.67;;;13.60;91.70;;;;;;5055444;28;20504;-60
2023/06/08 03:00:31;;;;;;;64.57;19.63;;;13.50;91.80;;;;;;5047477;28;20483;-59
2023/06/08 03:03:00;;;;;;;28.33;15.53;;;13.60;91.70;;;;;;5054904;28;21008;-60
2023/06/08 03:05:28;;;;;;;39.63;18.60;;;13.60;91.50;;;;;;5047708;28;20475;-59
2023/06/08 03:07:58;;;;;;;29.43;13.93;;;13.60;91.70;;;;;;5044770;28;20483;-59
2023/06/08 03:10:25;;;;;;;55.23;21.80;;;13.60;91.50;;;;;;5043266;28;20487;-59
2023/06/08 03:12:52;;;;;;;31.57;16.20;;;13.60;91.30;;;;;;5054635;28;20480;-59
2023/06/08 03:15:22;;;;;;;45.60;17.93;;;13.70;91.50;;;;;;5057642;28;20475;-59
2023/06/08 03:17:49;;;;;;;40.70;18.63;;;13.70;91.40;;;;;;5055214;28;20559;-59
2023/06/08 03:20:18;;;;;;;40.03;18.27;;;13.70;91.30;;;;;;5049339;28;20487;-59
2023/06/08 03:22:46;;;;;;;44.07;19.37;;;13.70;91.00;;;;;;5054049;28;20494;-59
2023/06/08 03:25:15;;;;;;;28.53;15.60;;;13.70;91.30;;;;;;5043345;28;21097;-59
2023/06/08 03:27:42;;;;;;;41.97;19.23;;;13.70;91.40;;;;;;5057977;28;20582;-59
2023/06/08 03:30:10;;;;;;;28.70;16.27;;;13.70;91.40;;;;;;5057642;28;20791;-59
2023/06/08 03:32:37;;;;;;;36.40;18.20;;;13.60;91.20;;;;;;5056742;28;20487;-59
2023/06/08 03:35:05;;;;;;;29.10;15.00;;;13.50;91.10;;;;;;5056221;28;20479;-59
2023/06/08 03:37:33;;;;;;;37.53;17.50;;;13.40;91.20;;;;;;5038798;28;20490;-59
2023/06/08 03:40:00;;;;;;;23.40;13.90;;;13.30;91.50;;;;;;5034399;28;20479;-59
2023/06/08 03:42:26;;;;;;;51.97;19.73;;;13.10;91.80;;;;;;5055239;28;20479;-59
2023/06/08 03:44:53;;;;;;;38.07;18.90;;;13.10;91.70;;;;;;5053546;28;20463;-59
2023/06/08 03:47:20;;;;;;;48.37;20.60;;;13.10;91.90;;;;;;5055205;28;20576;-59
2023/06/08 03:49:47;;;;;;;28.97;16.10;;;13.20;91.90;;;;;;5055745;28;20484;-59
2023/06/08 03:52:14;;;;;;;34.83;17.80;;;13.20;92.10;;;;;;5055332;28;20736;-60
2023/06/08 03:54:42;;;;;;;38.63;18.07;;;13.20;92.10;;;;;;5051124;28;20487;-59
2023/06/08 03:57:10;;;;;;;24.23;15.70;;;13.30;91.90;;;;;;5056561;28;20467;-59
2023/06/08 03:59:37;;;;;;;25.00;14.23;;;13.30;91.90;;;;;;5059386;28;20492;-59
2023/06/08 04:02:04;;;;;;;36.57;15.87;;;13.30;91.60;;;;;;5053148;28;20491;-59
2023/06/08 04:04:31;;;;;;;64.67;20.60;;;13.30;91.40;;;;;;5050803;28;20468;-59
2023/06/08 04:07:00;;;;;;;29.33;16.63;;;13.40;91.80;;;;;;5055925;28;20486;-59
2023/06/08 04:09:27;;;;;;;35.53;17.40;;;13.40;92.10;;;;;;5055649;28;20674;-60
2023/06/08 04:11:55;;;;;;;30.43;18.13;;;13.50;92.20;;;;;;5054315;28;20475;-59
2023/06/08 04:14:22;;;;;;;51.17;21.33;;;13.50;92.10;;;;;;5048752;28;20517;-60
2023/06/08 04:16:49;;;;;;;34.10;16.80;;;13.50;91.90;;;;;;5055660;28;20479;-60
2023/06/08 04:19:16;;;;;;;43.43;16.33;;;13.50;91.90;;;;;;5051449;28;21116;-60
2023/06/08 04:21:43;;;;;;;34.23;17.27;;;13.40;91.90;;;;;;5052291;28;20929;-59
2023/06/08 04:24:10;;;;;;;28.43;16.70;;;13.40;91.90;;;;;;5054385;28;20896;-59
2023/06/08 04:26:37;;;;;;;30.13;16.43;;;13.40;91.90;;;;;;5053921;28;20741;-59
2023/06/08 04:29:06;;;;;;;24.03;15.80;;;13.30;92.10;;;;;;5053790;28;20471;-59
2023/06/08 04:31:33;;;;;;;28.40;16.33;;;13.40;92.30;;;;;;5054156;28;20471;-59
2023/06/08 04:34:01;;;;;;;24.13;15.83;;;13.40;92.60;;;;;;5046616;28;21158;-59
2023/06/08 04:36:28;;;;;;;43.30;20.43;;;13.50;92.70;;;;;;5050089;28;20596;-59
2023/06/08 04:38:56;;;;;;;25.80;17.40;;;13.60;92.80;;;;;;5065097;28;20485;-59
2023/06/08 04:41:25;;;;;;;46.90;20.50;;;13.70;92.90;;;;;;5045189;28;20483;-60
2023/06/08 04:43:52;;;;;;;39.00;18.73;;;13.70;92.80;;;;;;5057543;28;20486;-59
2023/06/08 04:46:25;;;;;;;56.10;23.30;;;13.80;93.40;;;;;;5055940;28;20494;-59
2023/06/08 04:48:53;;;;;;;35.37;18.80;;;13.80;93.30;;;;;;5060689;28;20475;-59
2023/06/08 04:51:23;;;;;;;50.30;22.30;;;13.70;94.00;;;;;;5058884;28;20486;-59
2023/06/08 04:53:50;;;;;;;24.37;15.93;;;13.70;94.30;;;;;;5060710;28;20491;-59
2023/06/08 04:56:19;;;;;;;46.80;22.97;;;13.80;94.40;;;;;;5053926;28;20473;-59
2023/06/08 04:58:46;;;;;;;30.73;18.23;;;13.90;94.20;;;;;;5054372;28;20475;-59
2023/06/08 05:01:13;;;;;;;47.10;19.60;;;14.10;94.20;;;;;;5056129;28;21259;-59
2023/06/08 05:03:42;;;;;;;38.93;22.17;;;14.20;94.30;;;;;;5056740;28;20486;-60
2023/06/08 05:06:09;;;;;;;33.43;19.40;;;14.30;94.30;;;;;;5056979;28;20578;-59
2023/06/08 05:08:35;;;;;;;30.53;18.70;;;14.50;94.40;;;;;;5056402;28;20487;-59
2023/06/08 05:11:02;;;;;;;22.40;15.47;;;14.50;94.50;;;;;;5057846;28;20487;-59
2023/06/08 05:13:29;;;;;;;44.90;21.50;;;14.60;94.50;;;;;;5056957;28;20486;-59
2023/06/08 05:15:58;;;;;;;27.63;17.33;;;14.60;94.90;;;;;;5056315;28;21656;-59
2023/06/08 05:18:25;;;;;;;43.60;21.20;;;14.80;95.10;;;;;;5059447;28;20983;-59
2023/06/08 05:20:53;;;;;;;36.53;20.53;;;14.90;95.50;;;;;;5055673;28;20478;-59
2023/06/08 05:23:20;;;;;;;37.57;21.63;;;15.20;95.10;;;;;;5057587;28;20981;-59
2023/06/08 05:25:47;;;;;;;34.40;20.27;;;15.30;95.70;;;;;;5060424;28;20467;-59
2023/06/08 05:28:13;;;;;;;34.50;19.57;;;15.40;95.90;;;;;;5060620;28;20840;-58
2023/06/08 05:30:40;;;;;;;26.73;18.37;;;15.60;96.00;;;;;;5061173;28;21071;-59
2023/06/08 05:33:07;;;;;;;29.30;19.87;;;15.80;95.90;;;;;;5058964;28;20483;-59
2023/06/08 05:35:34;;;;;;;38.23;24.67;;;15.90;96.90;;;;;;5057844;28;20484;-60
2023/06/08 05:38:02;;;;;;;50.40;22.70;;;16.10;97.60;;;;;;5056068;28;20479;-59
2023/06/08 05:40:29;;;;;;;41.53;26.67;;;16.30;97.50;;;;;;5056395;28;20485;-59
2023/06/08 05:42:55;;;;;;;28.80;21.53;;;16.40;97.30;;;;;;5057808;28;20479;-59
2023/06/08 05:45:23;;;;;;;47.77;27.30;;;12.70;95.50;;;;;;5060856;28;20912;-59
2023/06/08 05:47:49;;;;;;;34.17;24.10;;;16.80;97.30;;;;;;5055774;28;21238;-59
2023/06/08 05:50:16;;;;;;;46.07;27.57;;;16.90;97.70;;;;;;5056467;28;20832;-59
2023/06/08 05:52:43;;;;;;;41.33;21.53;;;17.10;97.70;;;;;;5046903;28;20486;-59
2023/06/08 05:55:12;;;;;;;32.80;23.07;;;17.20;97.70;;;;;;5049374;28;20479;-59
2023/06/08 05:57:39;;;;;;;34.47;23.73;;;17.30;97.90;;;;;;5048011;28;20492;-59
2023/06/08 06:00:10;;;;;;;36.80;22.07;;;17.50;97.90;;;;;;5064664;28;20482;-59
2023/06/08 06:02:37;;;;;;;35.63;23.83;;;17.60;97.90;;;;;;5054200;28;20475;-59
2023/06/08 06:05:04;;;;;;;27.43;20.80;;;17.70;97.90;;;;;;5053554;28;20483;-59
2023/06/08 06:07:31;;;;;;;39.80;23.43;;;17.90;97.80;;;;;;5058197;28;21019;-59
2023/06/08 06:09:58;;;;;;;28.60;21.07;;;18.00;98.00;;;;;;5054083;28;20475;-59
2023/06/08 06:12:26;;;;;;;46.10;26.50;;;18.10;98.10;;;;;;5058290;28;20587;-59
2023/06/08 06:14:55;;;;;;;36.07;21.77;;;18.30;97.90;;;;;;5048160;28;20488;-59
2023/06/08 06:17:23;;;;;;;46.47;24.40;;;18.50;98.10;;;;;;5057799;28;20876;-59
2023/06/08 06:19:50;;;;;;;30.83;21.43;;;18.60;97.60;;;;;;5057784;28;20839;-59
2023/06/08 06:22:17;;;;;;;43.97;24.57;;;18.80;97.10;;;;;;5058172;28;20484;-60
2023/06/08 06:24:44;;;;;;;35.27;20.70;;;18.90;97.10;;;;;;5058881;28;20486;-59
2023/06/08 06:27:11;;;;;;;30.27;21.37;;;19.10;97.10;;;;;;5058104;28;20515;-59
2023/06/08 06:29:40;;;;;;;29.33;21.33;;;19.30;96.60;;;;;;5046342;28;20987;-59
2023/06/08 06:32:08;;;;;;;31.27;22.27;;;19.50;96.50;;;;;;5056850;28;20483;-59
2023/06/08 06:34:35;;;;;;;26.73;21.03;;;19.70;96.10;;;;;;5057658;28;20484;-59
2023/06/08 06:37:02;;;;;;;28.70;20.27;;;19.80;95.60;;;;;;5058944;28;20479;-59
2023/06/08 06:39:29;;;;;;;39.73;23.40;;;19.90;95.90;;;;;;5057650;28;20595;-59
2023/06/08 06:41:56;;;;;;;29.23;20.03;;;20.20;95.90;;;;;;5053215;28;20961;-59
2023/06/08 06:44:23;;;;;;;35.07;24.00;;;20.30;95.40;;;;;;5056359;28;20486;-59
2023/06/08 06:46:51;;;;;;;28.80;21.67;;;20.50;95.10;;;;;;5058500;28;20480;-60
2023/06/08 06:49:18;;;;;;;36.23;22.03;;;20.70;94.80;;;;;;5056922;28;21149;-59
2023/06/08 06:51:45;;;;;;;24.83;19.43;;;20.80;94.20;;;;;;5058177;28;20965;-59
2023/06/08 06:54:11;;;;;;;22.13;18.67;;;21.00;94.60;;;;;;5058393;28;20490;-59
2023/06/08 06:56:38;;;;;;;23.63;18.60;;;21.20;94.50;;;;;;5056584;28;20490;-59
2023/06/08 06:59:05;;;;;;;23.23;18.70;;;21.40;94.50;;;;;;5054952;28;20470;-59
2023/06/08 07:01:35;;;;;;;28.90;20.43;;;21.60;93.90;;;;;;5052422;28;20617;-59
2023/06/08 07:04:04;;;;;;;21.30;14.43;;;21.90;94.10;;;;;;5057718;28;20901;-59
2023/06/08 07:06:31;;;;;;;32.80;21.30;;;22.10;93.20;;;;;;5058239;28;20488;-60
2023/06/08 07:08:58;;;;;;;20.47;17.20;;;22.30;92.90;;;;;;5049160;28;20471;-59
2023/06/08 07:11:26;;;;;;;46.83;23.30;;;22.50;92.70;;;;;;5055778;28;20477;-59
2023/06/08 07:13:52;;;;;;;20.57;17.60;;;22.70;92.80;;;;;;5054930;28;20493;-59
2023/06/08 07:16:21;;;;;;;31.53;21.97;;;22.90;92.60;;;;;;5047909;28;20482;-62
2023/06/08 07:18:48;;;;;;;21.50;18.17;;;23.20;92.00;;;;;;5055425;28;20842;-61
2023/06/08 07:21:20;;;;;;;23.67;18.83;;;23.40;92.10;;;;;;5054478;28;20488;-60
2023/06/08 07:23:47;;;;;;;21.87;17.40;;;23.40;91.20;;;;;;5056138;28;20484;-61
2023/06/08 07:26:14;;;;;;;27.37;17.73;;;24.60;91.90;;;;;;5054702;28;20481;-59
2023/06/08 07:28:41;;;;;;;20.60;17.03;;;23.90;91.70;;;;;;5043337;28;20577;-59
2023/06/08 07:31:08;;;;;;;17.87;15.93;;;24.00;91.60;;;;;;5053439;28;20485;-59
2023/06/08 07:33:35;;;;;;;23.13;16.00;;;24.30;91.00;;;;;;5039391;28;21000;-59
2023/06/08 07:36:02;;;;;;;21.83;16.47;;;24.50;90.70;;;;;;5054723;28;20687;-60
2023/06/08 07:38:30;;;;;;;31.03;22.63;;;24.70;90.20;;;;;;5054760;28;20473;-60
2023/06/08 07:40:56;;;;;;;19.70;14.90;;;24.90;90.30;;;;;;5055130;28;20492;-60
2023/06/08 07:43:23;;;;;;;25.00;19.00;;;25.10;89.80;;;;;;5053935;28;20836;-59
2023/06/08 07:45:50;;;;;;;19.97;17.50;;;25.30;90.00;;;;;;5054072;28;20484;-60
2023/06/08 07:48:17;;;;;;;23.63;18.70;;;25.40;87.80;;;;;;5048963;28;20477;-60
2023/06/08 07:50:44;;;;;;;20.40;14.93;;;25.50;87.70;;;;;;5055122;28;20903;-60
2023/06/08 07:53:12;;;;;;;17.70;15.80;;;25.70;87.80;;;;;;5054596;28;20477;-60
2023/06/08 07:55:40;;;;;;;18.23;16.07;;;25.90;86.60;;;;;;5054727;28;20485;-59
2023/06/08 07:58:08;;;;;;;15.77;14.27;;;25.90;87.10;;;;;;5055254;28;20489;-60
2023/06/08 08:00:35;;;;;;;17.87;16.07;;;26.00;86.20;;;;;;5055579;28;20487;-60
2023/06/08 08:03:03;;;;;;;18.10;13.33;;;26.20;85.90;;;;;;5055031;28;20470;-59
2023/06/08 08:05:30;;;;;;;20.10;16.97;;;26.40;85.40;;;;;;5050166;28;20483;-60
2023/06/08 08:07:58;;;;;;;17.03;15.23;;;26.50;86.30;;;;;;5056061;28;20539;-60
2023/06/08 08:10:25;;;;;;;28.53;18.80;;;26.60;84.20;;;;;;5046665;28;20607;-60
2023/06/08 08:12:53;;;;;;;17.10;15.20;;;26.60;82.80;;;;;;5057799;28;20495;-60
2023/06/08 08:15:21;;;;;;;22.47;16.83;;;26.70;86.30;;;;;;5055933;28;20485;-60
2023/06/08 08:17:49;;;;;;;21.30;16.63;;;27.00;84.40;;;;;;5063161;28;20496;-60
2023/06/08 08:20:15;;;;;;;22.60;14.70;;;27.10;83.00;;;;;;5057927;28;20710;-60
2023/06/08 08:22:43;;;;;;;16.00;14.40;;;;;;;;;;5059778;28;20486;-60
2023/06/08 08:25:10;;;;;;;16.33;14.57;;;27.40;81.50;;;;;;5060270;28;20474;-59
2023/06/08 08:27:36;;;;;;;15.83;14.13;;;27.40;81.40;;;;;;5059423;28;20491;-60
2023/06/08 08:30:06;;;;;;;15.27;13.67;;;27.40;80.60;;;;;;5048414;28;20481;-60
2023/06/08 08:32:33;;;;;;;17.13;13.40;;;27.40;81.20;;;;;;5056415;28;20465;-60
2023/06/08 08:34:59;;;;;;;16.13;14.47;;;27.50;78.90;;;;;;5045591;28;21047;-60
2023/06/08 08:37:26;;;;;;;16.47;14.50;;;27.60;80.10;;;;;;5055506;28;20481;-60
2023/06/08 08:39:53;;;;;;;14.27;12.77;;;27.80;79.30;;;;;;5056985;28;20490;-60
2023/06/08 08:42:25;;;;;;;19.23;16.00;;;28.00;78.40;;;;;;5056880;28;20822;-60
2023/06/08 08:44:55;;;;;;;26.10;14.43;;;28.30;78.30;;;;;;5056393;28;20503;-61
2023/06/08 08:47:26;;;;;;;17.97;15.30;;;28.30;75.30;;;;;;5056937;28;20919;-60
2023/06/08 08:50:00;;;;;;;14.77;13.37;;;28.30;75.30;;;;;;5053706;28;21060;-61
2023/06/08 08:52:29;;;;;;;16.97;15.27;;;28.60;78.00;;;;;;5056063;28;20470;-61
2023/06/08 08:55:00;;;;;;;19.77;13.17;;;28.70;76.90;;;;;;5055527;28;20579;-60
2023/06/08 08:57:29;;;;;;;17.63;13.73;;;29.10;77.40;;;;;;5066530;28;20490;-60
2023/06/08 08:59:56;;;;;;;16.20;12.27;;;29.00;72.70;;;;;;5062053;28;20490;-61
2023/06/08 09:02:26;;;;;;;16.17;14.13;;;28.80;72.30;;;;;;5059700;28;21177;-60
2023/06/08 09:04:53;;;;;;;16.63;12.67;;;28.30;73.00;;;;;;5056776;28;21234;-61
2023/06/08 09:07:24;;;;;;;12.63;11.40;;;28.30;76.40;;;;;;5058913;28;20504;-61
2023/06/08 09:10:13;;;;;;;14.40;12.13;;;28.50;76.00;;;;;;5053908;28;20508;-62
2023/06/08 09:12:41;;;;;;;12.90;10.97;;;28.80;74.50;;;;;;5046128;28;20471;-60
2023/06/08 09:15:11;;;;;;;10.80;9.73;;;28.90;69.70;;;;;;5056686;28;20974;-61
2023/06/08 09:17:40;;;;;;;11.93;10.73;;;28.80;71.70;;;;;;5057618;28;20734;-61
2023/06/08 09:20:10;;;;;;;11.80;10.57;;;28.90;73.80;;;;;;5056620;28;21316;-61
2023/06/08 09:22:37;;;;;;;13.70;10.83;;;29.10;72.20;;;;;;5059040;28;20485;-61
2023/06/08 09:25:05;;;;;;;11.63;10.50;;;29.10;71.00;;;;;;5056697;28;20449;-61
2023/06/08 09:27:32;;;;;;;14.83;12.33;;;29.30;74.10;;;;;;5054942;28;20892;-61
2023/06/08 09:30:00;;;;;;;13.13;10.73;;;29.60;73.60;;;;;;5059235;28;20743;-61
2023/06/08 09:32:34;;;;;;;15.30;13.73;;;29.70;71.90;;;;;;5054046;28;20510;-61
2023/06/08 09:35:03;;;;;;;12.97;10.53;;;29.80;70.80;;;;;;5057572;28;21010;-61
2023/06/08 09:37:32;;;;;;;17.87;12.40;;;30.10;69.40;;;;;;5056528;28;20478;-61
2023/06/08 09:39:59;;;;;;;11.83;10.63;;;30.10;71.30;;;;;;5055339;28;20486;-61
2023/06/08 09:42:41;;;;;;;15.87;13.60;;;30.10;68.20;;;;;;5057090;28;20534;-61
2023/06/08 09:45:10;;;;;;;11.50;10.40;;;30.10;70.80;;;;;;5057419;28;20523;-61
2023/06/08 09:47:37;;;;;;;12.07;10.87;;;30.30;71.30;;;;;;5047294;28;20536;-61
2023/06/08 09:50:08;;;;;;;14.93;10.30;;;30.40;70.60;;;;;;5058777;28;20513;-61
2023/06/08 09:52:36;;;;;;;11.97;10.77;;;30.50;71.80;;;;;;5056651;28;20486;-62
2023/06/08 09:55:04;;;;;;;12.47;11.17;;;30.70;71.50;;;;;;5061350;28;20470;-61
2023/06/08 09:57:35;;;;;;;11.53;10.03;;;30.90;71.60;;;;;;5055864;28;20487;-62
2023/06/08 10:00:14;;;;;;;11.93;10.23;;;31.00;70.10;;;;;;5056237;28;20485;-62
2023/06/08 10:02:54;;;;;;;18.40;12.37;;;30.90;69.00;;;;;;5060250;28;20489;-61
2023/06/08 10:05:23;;;;;;;15.07;10.20;;;31.00;71.20;;;;;;5049361;28;21002;-61
2023/06/08 10:07:55;;;;;;;13.43;12.03;;;30.70;69.80;;;;;;5055564;28;20486;-60
2023/06/08 10:10:23;;;;;;;16.07;14.37;;;30.50;66.10;;;;;;5058715;28;20483;-61
2023/06/08 10:12:51;;;;;;;13.97;12.67;;;30.40;68.30;;;;;;5047183;28;20948;-60
2023/06/08 10:15:21;;;;;;;18.50;13.07;;;30.20;70.60;;;;;;5053205;28;20467;-61
2023/06/08 10:17:48;;;;;;;11.83;10.73;;;30.40;70.60;;;;;;5056217;28;20490;-61
2023/06/08 10:20:16;;;;;;;13.37;11.97;;;30.50;71.30;;;;;;5057505;28;20474;-61
2023/06/08 10:22:46;;;;;;;12.60;10.97;;;30.40;66.90;;;;;;5057277;28;20453;-61
2023/06/08 10:25:16;;;;;;;10.80;9.80;;;30.30;68.50;;;;;;5056769;28;20476;-61
2023/06/08 10:27:50;;;;;;;13.90;9.23;;;30.50;66.80;;;;;;5048223;28;20487;-61
2023/06/08 10:30:28;;;;;;;17.27;10.23;;;30.10;61.40;;;;;;5050677;28;20575;-61
2023/06/08 10:33:07;;;;;;;11.37;10.00;;;29.70;62.30;;;;;;5029080;28;20500;-61
2023/06/08 10:35:33;;;;;;;12.17;10.60;;;29.80;66.30;;;;;;5048540;28;20762;-62
2023/06/08 10:38:10;;;;;;;9.80;8.90;;;;;;;;;;5056265;28;20486;-61
2023/06/08 10:40:44;;;;;;;9.00;8.20;;;30.30;68.70;;;;;;5054692;28;20487;-61
2023/06/08 10:43:11;;;;;;;10.77;9.67;;;30.40;64.50;;;;;;5055817;28;20461;-61
2023/06/08 10:45:40;;;;;;;8.57;7.83;;;30.30;65.80;;;;;;5054830;28;20488;-61
2023/06/08 10:48:09;;;;;;;10.53;7.93;;;30.20;63.90;;;;;;5056399;28;20968;-61
2023/06/08 10:50:40;;;;;;;12.20;8.97;;;30.40;63.30;;;;;;5055571;28;20483;-61
2023/06/08 10:53:09;;;;;;;13.40;8.47;;;30.50;67.60;;;;;;5056088;28;20461;-61
2023/06/08 10:55:36;;;;;;;8.17;7.40;;;30.60;66.30;;;;;;5055454;28;20998;-61
2023/06/08 10:58:06;;;;;;;8.60;7.80;;;30.80;64.40;;;;;;5056906;28;20483;-61
2023/06/08 11:00:43;;;;;;;7.93;7.07;;;30.70;64.00;;;;;;5058148;28;20589;-61
2023/06/08 11:03:15;;;;;;;7.70;7.00;;;30.80;65.10;;;;;;5058379;28;20513;-61
2023/06/08 11:05:44;;;;;;;12.23;8.07;;;30.60;62.40;;;;;;5044320;28;20497;-60
2023/06/08 11:08:13;;;;;;;7.57;6.87;;;30.70;63.20;;;;;;5053634;28;20490;-61
2023/06/08 11:10:42;;;;;;;11.10;9.70;;;30.80;63.50;;;;;;5045116;28;20876;-60
2023/06/08 11:13:10;;;;;;;8.57;7.60;;;30.20;59.40;;;;;;5050178;28;20478;-60
2023/06/08 11:15:38;;;;;;;9.77;8.87;;;30.00;59.40;;;;;;5055008;28;20486;-62
2023/06/08 11:18:08;;;;;;;7.90;7.20;;;30.00;62.00;;;;;;5058970;28;20846;-62
2023/06/08 11:20:37;;;;;;;9.70;8.73;;;30.00;61.70;;;;;;5057402;28;20469;-61
2023/06/08 11:23:07;;;;;;;12.13;8.37;;;30.10;61.10;;;;;;5054696;28;20444;-62
2023/06/08 11:25:36;;;;;;;19.27;7.30;;;30.60;61.50;;;;;;5044527;28;20465;-62
2023/06/08 11:28:03;;;;;;;6.80;6.20;;;30.70;65.10;;;;;;5056499;28;20456;-61
2023/06/08 11:30:33;;;;;;;11.87;9.17;;;30.60;59.20;;;;;;5057454;28;20453;-61
2023/06/08 11:33:01;;;;;;;12.03;6.83;;;31.00;64.20;;;;;;5059601;28;20533;-61
2023/06/08 11:35:27;;;;;;;6.80;6.30;;;31.30;62.00;;;;;;5056848;28;20464;-61
2023/06/08 11:37:56;;;;;;;7.50;6.90;;;31.20;59.40;;;;;;5041772;28;20450;-62
2023/06/08 11:40:23;;;;;;;13.23;6.93;;;30.60;58.90;;;;;;5055248;28;20478;-62
2023/06/08 11:42:52;;;;;;;11.47;10.27;;;30.10;58.30;;;;;;5049294;28;20888;-62
2023/06/08 11:45:20;;;;;;;12.07;10.80;;;30.10;60.90;;;;;;5064675;28;20436;-61
2023/06/08 11:47:47;;;;;;;8.87;8.07;;;30.10;59.40;;;;;;5065677;28;20504;-62
2023/06/08 11:50:16;;;;;;;7.40;6.70;;;30.40;59.30;;;;;;5067324;28;20943;-62
2023/06/08 11:52:43;;;;;;;13.33;9.90;;;;;;;;;;5070315;28;20512;-62
2023/06/08 11:55:15;;;;;;;8.90;8.00;;;30.40;60.50;;;;;;5070004;28;21162;-62
2023/06/08 11:57:44;;;;;;;16.73;10.50;;;30.20;58.90;;;;;;5072884;28;20457;-61
2023/06/08 12:00:17;;;;;;;8.27;6.87;;;30.60;59.50;;;;;;5068091;28;20761;-61
2023/06/08 12:02:47;;;;;;;7.50;6.70;;;30.70;56.20;;;;;;5063849;28;20478;-62
2023/06/08 12:05:16;;;;;;;10.17;7.27;;;30.80;58.70;;;;;;5066208;28;20460;-62
2023/06/08 12:07:57;;;;;;;8.80;6.77;;;31.00;59.60;;;;;;5058501;28;20661;-62
2023/06/08 12:10:25;;;;;;;7.17;5.77;;;31.30;59.40;;;;;;5076286;28;20480;-61
2023/06/08 12:12:52;;;;;;;9.93;5.93;;;31.70;59.90;;;;;;5063345;28;20569;-61
2023/06/08 12:15:20;;;;;;;6.90;6.27;;;32.00;58.00;;;;;;5064267;28;20876;-61
2023/06/08 12:17:47;;;;;;;7.33;6.50;;;32.20;59.30;;;;;;5076069;28;20568;-61
2023/06/08 12:20:17;;;;;;;8.90;6.37;;;32.30;56.80;;;;;;5064904;28;20986;-61
2023/06/08 12:22:45;;;;;;;7.00;6.30;;;31.30;54.00;;;;;;5070341;28;20479;-62
2023/06/08 12:25:11;;;;;;;6.67;6.07;;;30.60;54.80;;;;;;5070574;28;20451;-61
2023/06/08 12:27:39;;;;;;;10.73;6.90;;;30.00;55.50;;;;;;5068283;28;20460;-61
2023/06/08 12:30:08;;;;;;;7.17;6.57;;;30.00;59.00;;;;;;5072906;28;20459;-61
2023/06/08 12:32:37;;;;;;;6.70;6.13;;;;;;;;;;5065277;28;20504;-62
2023/06/08 12:35:05;;;;;;;6.90;6.30;;;30.60;56.10;;;;;;5060266;28;20471;-61
2023/06/08 12:37:31;;;;;;;8.50;7.67;;;30.40;55.80;;;;;;5065984;28;20969;-62